sensor_id;sensor_type;location;lat;lon;timestamp;P1;durP1;ratioP1;P2;durP2;ratioP2
36449;SDS011;22475;51.390;7.180;2022-11-15T00:00:30;7.40;;;2.67;;
36449;SDS011;22475;51.390;7.180;2022-11-15T00:02:56;2.70;;;2.50;;
36449;SDS011;22475;51.390;7.180;2022-11-15T00:05:24;5.30;;;3.15;;
36449;SDS011;22475;51.390;7.180;2022-11-15T00:07:51;6.00;;;2.95;;
36449;SDS011;22475;51.390;7.180;2022-11-15T00:10:18;7.75;;;2.75;;
36449;SDS011;22475;51.390;7.180;2022-11-15T00:12:45;4.45;;;3.30;;
36449;SDS011;22475;51.390;7.180;2022-11-15T00:15:11;4.68;;;3.55;;
36449;SDS011;22475;51.390;7.180;2022-11-15T00:17:38;15.05;;;2.45;;
36449;SDS011;22475;51.390;7.180;2022-11-15T00:20:05;3.03;;;2.80;;
36449;SDS011;22475;51.390;7.180;2022-11-15T00:22:34;3.85;;;2.95;;
36449;SDS011;22475;51.390;7.180;2022-11-15T00:25:01;5.82;;;2.50;;
36449;SDS011;22475;51.390;7.180;2022-11-15T00:27:28;2.75;;;2.35;;
36449;SDS011;22475;51.390;7.180;2022-11-15T00:29:55;3.45;;;2.78;;
36449;SDS011;22475;51.390;7.180;2022-11-15T00:32:22;3.72;;;2.75;;
36449;SDS011;22475;51.390;7.180;2022-11-15T00:34:48;5.60;;;2.67;;
36449;SDS011;22475;51.390;7.180;2022-11-15T00:37:15;8.05;;;3.85;;
36449;SDS011;22475;51.390;7.180;2022-11-15T00:39:43;3.78;;;2.33;;
36449;SDS011;22475;51.390;7.180;2022-11-15T00:42:10;2.63;;;2.42;;
36449;SDS011;22475;51.390;7.180;2022-11-15T00:44:37;4.68;;;3.05;;
36449;SDS011;22475;51.390;7.180;2022-11-15T00:47:03;2.92;;;2.55;;
36449;SDS011;22475;51.390;7.180;2022-11-15T00:49:30;3.33;;;2.38;;
36449;SDS011;22475;51.390;7.180;2022-11-15T00:51:57;3.25;;;2.88;;
36449;SDS011;22475;51.390;7.180;2022-11-15T00:54:23;2.47;;;2.20;;
36449;SDS011;22475;51.390;7.180;2022-11-15T00:56:51;2.90;;;2.45;;
36449;SDS011;22475;51.390;7.180;2022-11-15T00:59:18;5.35;;;2.50;;
36449;SDS011;22475;51.390;7.180;2022-11-15T01:01:45;2.88;;;2.20;;
36449;SDS011;22475;51.390;7.180;2022-11-15T01:04:12;2.63;;;2.42;;
36449;SDS011;22475;51.390;7.180;2022-11-15T01:06:39;3.13;;;2.50;;
36449;SDS011;22475;51.390;7.180;2022-11-15T01:09:06;2.80;;;2.47;;
36449;SDS011;22475;51.390;7.180;2022-11-15T01:11:33;2.67;;;2.45;;
36449;SDS011;22475;51.390;7.180;2022-11-15T01:14:01;3.03;;;2.83;;
36449;SDS011;22475;51.390;7.180;2022-11-15T01:16:27;3.63;;;2.45;;
36449;SDS011;22475;51.390;7.180;2022-11-15T01:18:54;4.28;;;2.50;;
36449;SDS011;22475;51.390;7.180;2022-11-15T01:21:21;1.90;;;1.80;;
36449;SDS011;22475;51.390;7.180;2022-11-15T01:23:47;2.15;;;1.95;;
36449;SDS011;22475;51.390;7.180;2022-11-15T01:26:14;7.32;;;2.88;;
36449;SDS011;22475;51.390;7.180;2022-11-15T01:28:42;2.88;;;2.53;;
36449;SDS011;22475;51.390;7.180;2022-11-15T01:31:11;2.42;;;1.90;;
36449;SDS011;22475;51.390;7.180;2022-11-15T01:33:39;3.67;;;2.45;;
36449;SDS011;22475;51.390;7.180;2022-11-15T01:36:06;3.63;;;2.08;;
36449;SDS011;22475;51.390;7.180;2022-11-15T01:38:34;3.75;;;2.55;;
36449;SDS011;22475;51.390;7.180;2022-11-15T01:41:01;5.00;;;2.25;;
36449;SDS011;22475;51.390;7.180;2022-11-15T01:43:29;2.60;;;2.30;;
36449;SDS011;22475;51.390;7.180;2022-11-15T01:45:58;9.25;;;2.85;;
36449;SDS011;22475;51.390;7.180;2022-11-15T01:48:30;4.07;;;1.95;;
36449;SDS011;22475;51.390;7.180;2022-11-15T01:50:59;3.90;;;2.63;;
36449;SDS011;22475;51.390;7.180;2022-11-15T01:53:30;2.03;;;1.67;;
36449;SDS011;22475;51.390;7.180;2022-11-15T01:56:00;5.15;;;2.33;;
36449;SDS011;22475;51.390;7.180;2022-11-15T01:58:28;3.05;;;2.50;;
36449;SDS011;22475;51.390;7.180;2022-11-15T02:00:55;2.78;;;2.53;;
36449;SDS011;22475;51.390;7.180;2022-11-15T02:03:22;4.90;;;2.13;;
36449;SDS011;22475;51.390;7.180;2022-11-15T02:05:56;2.42;;;2.33;;
36449;SDS011;22475;51.390;7.180;2022-11-15T02:08:23;2.40;;;1.85;;
36449;SDS011;22475;51.390;7.180;2022-11-15T02:10:50;3.10;;;2.33;;
36449;SDS011;22475;51.390;7.180;2022-11-15T02:13:17;2.78;;;1.92;;
36449;SDS011;22475;51.390;7.180;2022-11-15T02:15:46;3.70;;;2.28;;
36449;SDS011;22475;51.390;7.180;2022-11-15T02:18:22;1.92;;;1.77;;
36449;SDS011;22475;51.390;7.180;2022-11-15T02:21:10;2.40;;;1.50;;
36449;SDS011;22475;51.390;7.180;2022-11-15T02:23:53;5.28;;;2.90;;
36449;SDS011;22475;51.390;7.180;2022-11-15T02:26:46;2.00;;;1.90;;
36449;SDS011;22475;51.390;7.180;2022-11-15T02:29:39;2.45;;;2.22;;
36449;SDS011;22475;51.390;7.180;2022-11-15T02:32:28;1.83;;;1.73;;
36449;SDS011;22475;51.390;7.180;2022-11-15T02:35:02;4.13;;;2.13;;
36449;SDS011;22475;51.390;7.180;2022-11-15T02:37:39;9.32;;;2.80;;
36449;SDS011;22475;51.390;7.180;2022-11-15T02:40:12;4.78;;;2.20;;
36449;SDS011;22475;51.390;7.180;2022-11-15T02:42:50;2.42;;;1.85;;
36449;SDS011;22475;51.390;7.180;2022-11-15T02:45:40;5.15;;;2.63;;
36449;SDS011;22475;51.390;7.180;2022-11-15T02:48:12;3.13;;;2.10;;
36449;SDS011;22475;51.390;7.180;2022-11-15T02:50:40;2.58;;;1.92;;
36449;SDS011;22475;51.390;7.180;2022-11-15T02:53:08;6.90;;;2.47;;
36449;SDS011;22475;51.390;7.180;2022-11-15T02:55:36;6.03;;;2.00;;
36449;SDS011;22475;51.390;7.180;2022-11-15T02:58:16;3.92;;;2.67;;
36449;SDS011;22475;51.390;7.180;2022-11-15T03:00:58;3.00;;;1.67;;
36449;SDS011;22475;51.390;7.180;2022-11-15T03:03:35;2.78;;;2.58;;
36449;SDS011;22475;51.390;7.180;2022-11-15T03:06:15;3.65;;;2.47;;
36449;SDS011;22475;51.390;7.180;2022-11-15T03:08:53;3.00;;;2.60;;
36449;SDS011;22475;51.390;7.180;2022-11-15T03:11:28;5.60;;;3.15;;
36449;SDS011;22475;51.390;7.180;2022-11-15T03:13:57;3.28;;;2.30;;
36449;SDS011;22475;51.390;7.180;2022-11-15T03:16:29;6.60;;;1.88;;
36449;SDS011;22475;51.390;7.180;2022-11-15T03:19:06;2.30;;;2.08;;
36449;SDS011;22475;51.390;7.180;2022-11-15T03:21:38;2.33;;;2.13;;
36449;SDS011;22475;51.390;7.180;2022-11-15T03:24:06;5.07;;;2.17;;
36449;SDS011;22475;51.390;7.180;2022-11-15T03:26:34;3.03;;;2.22;;
36449;SDS011;22475;51.390;7.180;2022-11-15T03:29:06;3.08;;;2.78;;
36449;SDS011;22475;51.390;7.180;2022-11-15T03:31:38;4.72;;;2.42;;
36449;SDS011;22475;51.390;7.180;2022-11-15T03:34:15;3.83;;;2.33;;
36449;SDS011;22475;51.390;7.180;2022-11-15T03:36:48;4.18;;;2.17;;
36449;SDS011;22475;51.390;7.180;2022-11-15T03:39:17;3.83;;;3.17;;
36449;SDS011;22475;51.390;7.180;2022-11-15T03:41:46;3.28;;;2.72;;
36449;SDS011;22475;51.390;7.180;2022-11-15T03:44:19;2.45;;;1.92;;
36449;SDS011;22475;51.390;7.180;2022-11-15T03:46:55;2.22;;;2.03;;
36449;SDS011;22475;51.390;7.180;2022-11-15T03:49:31;4.50;;;2.42;;
36449;SDS011;22475;51.390;7.180;2022-11-15T03:52:00;5.45;;;2.38;;
36449;SDS011;22475;51.390;7.180;2022-11-15T03:54:28;3.55;;;2.85;;
36449;SDS011;22475;51.390;7.180;2022-11-15T03:56:55;2.92;;;1.98;;
36449;SDS011;22475;51.390;7.180;2022-11-15T03:59:22;6.05;;;2.10;;
36449;SDS011;22475;51.390;7.180;2022-11-15T04:01:49;2.22;;;2.13;;
36449;SDS011;22475;51.390;7.180;2022-11-15T04:04:15;3.03;;;2.70;;
36449;SDS011;22475;51.390;7.180;2022-11-15T04:06:44;4.63;;;2.22;;
36449;SDS011;22475;51.390;7.180;2022-11-15T04:09:10;6.90;;;2.72;;
36449;SDS011;22475;51.390;7.180;2022-11-15T04:11:37;2.60;;;2.40;;
36449;SDS011;22475;51.390;7.180;2022-11-15T04:14:04;2.50;;;2.30;;
36449;SDS011;22475;51.390;7.180;2022-11-15T04:16:30;2.35;;;2.25;;
36449;SDS011;22475;51.390;7.180;2022-11-15T04:18:57;2.60;;;2.17;;
36449;SDS011;22475;51.390;7.180;2022-11-15T04:21:42;2.53;;;2.33;;
36449;SDS011;22475;51.390;7.180;2022-11-15T04:24:27;3.08;;;2.10;;
36449;SDS011;22475;51.390;7.180;2022-11-15T04:26:54;2.85;;;1.88;;
36449;SDS011;22475;51.390;7.180;2022-11-15T04:29:20;2.75;;;2.00;;
36449;SDS011;22475;51.390;7.180;2022-11-15T04:32:01;2.35;;;2.10;;
36449;SDS011;22475;51.390;7.180;2022-11-15T04:34:29;2.17;;;2.08;;
36449;SDS011;22475;51.390;7.180;2022-11-15T04:36:57;3.08;;;2.15;;
36449;SDS011;22475;51.390;7.180;2022-11-15T04:39:41;2.38;;;2.20;;
36449;SDS011;22475;51.390;7.180;2022-11-15T04:42:09;2.42;;;2.08;;
36449;SDS011;22475;51.390;7.180;2022-11-15T04:44:36;2.83;;;1.77;;
36449;SDS011;22475;51.390;7.180;2022-11-15T04:47:03;2.97;;;2.78;;
36449;SDS011;22475;51.390;7.180;2022-11-15T04:49:30;2.38;;;2.15;;
36449;SDS011;22475;51.390;7.180;2022-11-15T04:51:59;2.88;;;1.90;;
36449;SDS011;22475;51.390;7.180;2022-11-15T04:54:25;2.80;;;2.20;;
36449;SDS011;22475;51.390;7.180;2022-11-15T04:56:52;2.17;;;2.00;;
36449;SDS011;22475;51.390;7.180;2022-11-15T04:59:19;4.10;;;2.90;;
36449;SDS011;22475;51.390;7.180;2022-11-15T05:01:45;1.95;;;1.75;;
36449;SDS011;22475;51.390;7.180;2022-11-15T05:04:12;3.45;;;2.60;;
36449;SDS011;22475;51.390;7.180;2022-11-15T05:06:44;3.13;;;2.20;;
36449;SDS011;22475;51.390;7.180;2022-11-15T05:09:12;7.70;;;3.53;;
36449;SDS011;22475;51.390;7.180;2022-11-15T05:11:39;4.35;;;2.33;;
36449;SDS011;22475;51.390;7.180;2022-11-15T05:14:06;2.58;;;2.25;;
36449;SDS011;22475;51.390;7.180;2022-11-15T05:16:33;2.90;;;2.33;;
36449;SDS011;22475;51.390;7.180;2022-11-15T05:19:00;4.43;;;3.10;;
36449;SDS011;22475;51.390;7.180;2022-11-15T05:21:27;2.95;;;2.67;;
36449;SDS011;22475;51.390;7.180;2022-11-15T05:23:54;2.72;;;2.10;;
36449;SDS011;22475;51.390;7.180;2022-11-15T05:26:22;3.13;;;2.92;;
36449;SDS011;22475;51.390;7.180;2022-11-15T05:28:51;2.28;;;2.03;;
36449;SDS011;22475;51.390;7.180;2022-11-15T05:33:46;3.13;;;2.03;;
36449;SDS011;22475;51.390;7.180;2022-11-15T05:36:16;7.38;;;2.83;;
36449;SDS011;22475;51.390;7.180;2022-11-15T05:38:46;2.83;;;2.63;;
36449;SDS011;22475;51.390;7.180;2022-11-15T05:41:14;2.33;;;2.03;;
36449;SDS011;22475;51.390;7.180;2022-11-15T05:43:44;2.05;;;1.95;;
36449;SDS011;22475;51.390;7.180;2022-11-15T05:46:13;2.93;;;2.80;;
36449;SDS011;22475;51.390;7.180;2022-11-15T05:48:40;5.80;;;2.95;;
36449;SDS011;22475;51.390;7.180;2022-11-15T05:51:09;5.22;;;2.40;;
36449;SDS011;22475;51.390;7.180;2022-11-15T05:53:37;2.35;;;2.15;;
36449;SDS011;22475;51.390;7.180;2022-11-15T05:56:04;2.28;;;2.17;;
36449;SDS011;22475;51.390;7.180;2022-11-15T05:58:31;3.20;;;2.33;;
36449;SDS011;22475;51.390;7.180;2022-11-15T06:01:00;2.95;;;2.17;;
36449;SDS011;22475;51.390;7.180;2022-11-15T06:03:27;2.47;;;2.28;;
36449;SDS011;22475;51.390;7.180;2022-11-15T06:05:54;2.25;;;2.10;;
36449;SDS011;22475;51.390;7.180;2022-11-15T06:08:22;2.92;;;2.42;;
36449;SDS011;22475;51.390;7.180;2022-11-15T06:10:48;3.58;;;1.98;;
36449;SDS011;22475;51.390;7.180;2022-11-15T06:13:15;2.20;;;2.10;;
36449;SDS011;22475;51.390;7.180;2022-11-15T06:15:42;2.60;;;2.35;;
36449;SDS011;22475;51.390;7.180;2022-11-15T06:18:10;2.50;;;2.15;;
36449;SDS011;22475;51.390;7.180;2022-11-15T06:20:37;3.03;;;2.75;;
36449;SDS011;22475;51.390;7.180;2022-11-15T06:23:03;4.28;;;2.10;;
36449;SDS011;22475;51.390;7.180;2022-11-15T06:25:31;2.45;;;1.85;;
36449;SDS011;22475;51.390;7.180;2022-11-15T06:27:58;7.80;;;2.22;;
36449;SDS011;22475;51.390;7.180;2022-11-15T06:30:27;2.67;;;2.20;;
36449;SDS011;22475;51.390;7.180;2022-11-15T06:32:58;2.20;;;2.10;;
36449;SDS011;22475;51.390;7.180;2022-11-15T06:35:28;2.00;;;1.90;;
36449;SDS011;22475;51.390;7.180;2022-11-15T06:37:55;2.15;;;1.95;;
36449;SDS011;22475;51.390;7.180;2022-11-15T06:40:22;7.15;;;1.50;;
36449;SDS011;22475;51.390;7.180;2022-11-15T06:42:49;2.97;;;1.77;;
36449;SDS011;22475;51.390;7.180;2022-11-15T06:45:15;1.70;;;1.55;;
36449;SDS011;22475;51.390;7.180;2022-11-15T06:47:45;1.73;;;1.60;;
36449;SDS011;22475;51.390;7.180;2022-11-15T06:50:12;4.35;;;1.30;;
36449;SDS011;22475;51.390;7.180;2022-11-15T06:52:40;1.75;;;1.55;;
36449;SDS011;22475;51.390;7.180;2022-11-15T06:55:08;1.77;;;1.67;;
36449;SDS011;22475;51.390;7.180;2022-11-15T06:57:35;2.10;;;1.55;;
36449;SDS011;22475;51.390;7.180;2022-11-15T07:00:02;1.80;;;1.67;;
36449;SDS011;22475;51.390;7.180;2022-11-15T07:02:30;3.00;;;1.73;;
36449;SDS011;22475;51.390;7.180;2022-11-15T07:04:57;2.10;;;1.90;;
36449;SDS011;22475;51.390;7.180;2022-11-15T07:07:23;1.95;;;1.48;;
36449;SDS011;22475;51.390;7.180;2022-11-15T07:09:51;4.10;;;1.75;;
36449;SDS011;22475;51.390;7.180;2022-11-15T07:12:18;1.55;;;1.45;;
36449;SDS011;22475;51.390;7.180;2022-11-15T07:14:45;1.90;;;1.75;;
36449;SDS011;22475;51.390;7.180;2022-11-15T07:17:12;4.65;;;1.80;;
36449;SDS011;22475;51.390;7.180;2022-11-15T07:19:38;2.20;;;2.00;;
36449;SDS011;22475;51.390;7.180;2022-11-15T07:22:05;1.95;;;1.50;;
36449;SDS011;22475;51.390;7.180;2022-11-15T07:24:32;1.73;;;1.63;;
36449;SDS011;22475;51.390;7.180;2022-11-15T07:27:00;3.70;;;1.33;;
36449;SDS011;22475;51.390;7.180;2022-11-15T07:29:27;2.50;;;1.52;;
36449;SDS011;22475;51.390;7.180;2022-11-15T07:31:53;3.45;;;1.20;;
36449;SDS011;22475;51.390;7.180;2022-11-15T07:34:20;5.55;;;1.70;;
36449;SDS011;22475;51.390;7.180;2022-11-15T07:36:48;2.83;;;1.30;;
36449;SDS011;22475;51.390;7.180;2022-11-15T07:39:15;1.10;;;1.02;;
36449;SDS011;22475;51.390;7.180;2022-11-15T07:41:42;1.45;;;1.35;;
36449;SDS011;22475;51.390;7.180;2022-11-15T07:44:11;2.17;;;1.33;;
36449;SDS011;22475;51.390;7.180;2022-11-15T07:46:37;0.55;;;0.55;;
36449;SDS011;22475;51.390;7.180;2022-11-15T07:49:04;2.47;;;1.60;;
36449;SDS011;22475;51.390;7.180;2022-11-15T07:51:31;2.70;;;1.30;;
36449;SDS011;22475;51.390;7.180;2022-11-15T07:53:58;1.38;;;1.10;;
36449;SDS011;22475;51.390;7.180;2022-11-15T07:56:24;2.22;;;0.90;;
36449;SDS011;22475;51.390;7.180;2022-11-15T07:58:51;1.23;;;1.13;;
36449;SDS011;22475;51.390;7.180;2022-11-15T08:01:19;1.55;;;1.45;;
36449;SDS011;22475;51.390;7.180;2022-11-15T08:03:46;1.20;;;1.10;;
36449;SDS011;22475;51.390;7.180;2022-11-15T08:06:13;3.22;;;1.42;;
36449;SDS011;22475;51.390;7.180;2022-11-15T08:08:39;2.03;;;0.80;;
36449;SDS011;22475;51.390;7.180;2022-11-15T08:11:06;4.28;;;1.40;;
36449;SDS011;22475;51.390;7.180;2022-11-15T08:13:33;1.30;;;1.20;;
36449;SDS011;22475;51.390;7.180;2022-11-15T08:16:00;2.30;;;1.30;;
36449;SDS011;22475;51.390;7.180;2022-11-15T08:18:29;1.40;;;1.15;;
36449;SDS011;22475;51.390;7.180;2022-11-15T08:20:58;1.40;;;1.30;;
36449;SDS011;22475;51.390;7.180;2022-11-15T08:23:25;1.45;;;1.13;;
36449;SDS011;22475;51.390;7.180;2022-11-15T08:25:52;1.02;;;1.00;;
36449;SDS011;22475;51.390;7.180;2022-11-15T08:28:24;1.40;;;0.82;;
36449;SDS011;22475;51.390;7.180;2022-11-15T08:30:51;0.82;;;0.82;;
36449;SDS011;22475;51.390;7.180;2022-11-15T08:33:17;1.20;;;1.17;;
36449;SDS011;22475;51.390;7.180;2022-11-15T08:35:45;3.65;;;1.23;;
36449;SDS011;22475;51.390;7.180;2022-11-15T08:38:12;1.45;;;1.08;;
36449;SDS011;22475;51.390;7.180;2022-11-15T08:40:39;0.80;;;0.80;;
36449;SDS011;22475;51.390;7.180;2022-11-15T08:43:06;2.53;;;1.00;;
36449;SDS011;22475;51.390;7.180;2022-11-15T08:45:33;1.25;;;0.85;;
36449;SDS011;22475;51.390;7.180;2022-11-15T08:48:01;0.95;;;0.95;;
36449;SDS011;22475;51.390;7.180;2022-11-15T08:50:28;0.82;;;0.82;;
36449;SDS011;22475;51.390;7.180;2022-11-15T08:52:57;1.52;;;0.95;;
36449;SDS011;22475;51.390;7.180;2022-11-15T08:55:23;0.80;;;0.80;;
36449;SDS011;22475;51.390;7.180;2022-11-15T08:57:50;1.05;;;0.80;;
36449;SDS011;22475;51.390;7.180;2022-11-15T09:00:17;0.70;;;0.70;;
36449;SDS011;22475;51.390;7.180;2022-11-15T09:02:45;1.25;;;1.15;;
36449;SDS011;22475;51.390;7.180;2022-11-15T09:05:11;0.93;;;0.63;;
36449;SDS011;22475;51.390;7.180;2022-11-15T09:07:40;0.93;;;0.88;;
36449;SDS011;22475;51.390;7.180;2022-11-15T09:10:08;0.70;;;0.70;;
36449;SDS011;22475;51.390;7.180;2022-11-15T09:12:35;2.53;;;1.10;;
36449;SDS011;22475;51.390;7.180;2022-11-15T09:15:02;0.90;;;0.90;;
36449;SDS011;22475;51.390;7.180;2022-11-15T09:17:29;2.38;;;1.08;;
36449;SDS011;22475;51.390;7.180;2022-11-15T09:19:55;1.25;;;0.80;;
36449;SDS011;22475;51.390;7.180;2022-11-15T09:22:22;0.63;;;0.60;;
36449;SDS011;22475;51.390;7.180;2022-11-15T09:24:49;1.77;;;0.65;;
36449;SDS011;22475;51.390;7.180;2022-11-15T09:27:17;2.60;;;0.80;;
36449;SDS011;22475;51.390;7.180;2022-11-15T09:29:44;1.77;;;0.75;;
36449;SDS011;22475;51.390;7.180;2022-11-15T09:32:10;0.73;;;0.73;;
36449;SDS011;22475;51.390;7.180;2022-11-15T09:34:37;1.20;;;0.60;;
36449;SDS011;22475;51.390;7.180;2022-11-15T09:37:04;1.52;;;0.73;;
36449;SDS011;22475;51.390;7.180;2022-11-15T09:39:31;1.02;;;1.00;;
36449;SDS011;22475;51.390;7.180;2022-11-15T09:41:59;0.77;;;0.60;;
36449;SDS011;22475;51.390;7.180;2022-11-15T09:44:44;1.08;;;0.75;;
36449;SDS011;22475;51.390;7.180;2022-11-15T09:47:34;0.50;;;0.50;;
36449;SDS011;22475;51.390;7.180;2022-11-15T09:50:17;3.10;;;0.98;;
36449;SDS011;22475;51.390;7.180;2022-11-15T09:52:53;1.02;;;0.80;;
36449;SDS011;22475;51.390;7.180;2022-11-15T09:55:21;2.13;;;0.57;;
36449;SDS011;22475;51.390;7.180;2022-11-15T09:58:00;0.70;;;0.70;;
36449;SDS011;22475;51.390;7.180;2022-11-15T10:00:42;0.50;;;0.50;;
36449;SDS011;22475;51.390;7.180;2022-11-15T10:03:13;1.95;;;0.70;;
36449;SDS011;22475;51.390;7.180;2022-11-15T10:05:43;1.65;;;0.70;;
36449;SDS011;22475;51.390;7.180;2022-11-15T10:08:23;0.60;;;0.50;;
36449;SDS011;22475;51.390;7.180;2022-11-15T10:10:57;0.43;;;0.43;;
36449;SDS011;22475;51.390;7.180;2022-11-15T10:13:25;0.30;;;0.30;;
36449;SDS011;22475;51.390;7.180;2022-11-15T10:15:54;0.95;;;0.60;;
36449;SDS011;22475;51.390;7.180;2022-11-15T10:18:29;0.70;;;0.68;;
36449;SDS011;22475;51.390;7.180;2022-11-15T10:21:02;0.80;;;0.35;;
36449;SDS011;22475;51.390;7.180;2022-11-15T10:23:38;0.45;;;0.45;;
36449;SDS011;22475;51.390;7.180;2022-11-15T10:26:07;0.80;;;0.40;;
36449;SDS011;22475;51.390;7.180;2022-11-15T10:28:37;0.45;;;0.35;;
36449;SDS011;22475;51.390;7.180;2022-11-15T10:31:20;4.22;;;0.88;;
36449;SDS011;22475;51.390;7.180;2022-11-15T10:33:48;0.50;;;0.40;;
36449;SDS011;22475;51.390;7.180;2022-11-15T10:36:16;1.33;;;0.85;;
36449;SDS011;22475;51.390;7.180;2022-11-15T10:38:53;2.33;;;0.73;;
36449;SDS011;22475;51.390;7.180;2022-11-15T10:41:31;0.70;;;0.50;;
36449;SDS011;22475;51.390;7.180;2022-11-15T10:44:02;1.80;;;0.60;;
36449;SDS011;22475;51.390;7.180;2022-11-15T10:46:50;2.15;;;0.60;;
36449;SDS011;22475;51.390;7.180;2022-11-15T10:49:31;0.50;;;0.45;;
36449;SDS011;22475;51.390;7.180;2022-11-15T10:52:00;2.35;;;0.38;;
36449;SDS011;22475;51.390;7.180;2022-11-15T10:54:29;0.50;;;0.43;;
36449;SDS011;22475;51.390;7.180;2022-11-15T10:56:59;0.20;;;0.20;;
36449;SDS011;22475;51.390;7.180;2022-11-15T10:59:32;1.08;;;0.43;;
36449;SDS011;22475;51.390;7.180;2022-11-15T11:02:20;0.60;;;0.60;;
36449;SDS011;22475;51.390;7.180;2022-11-15T11:04:55;0.70;;;0.60;;
36449;SDS011;22475;51.390;7.180;2022-11-15T11:07:23;1.05;;;0.60;;
36449;SDS011;22475;51.390;7.180;2022-11-15T11:09:56;1.00;;;0.45;;
36449;SDS011;22475;51.390;7.180;2022-11-15T11:12:27;2.10;;;0.40;;
36449;SDS011;22475;51.390;7.180;2022-11-15T11:14:56;0.22;;;0.22;;
36449;SDS011;22475;51.390;7.180;2022-11-15T11:17:27;1.40;;;0.52;;
36449;SDS011;22475;51.390;7.180;2022-11-15T11:20:00;1.75;;;0.40;;
36449;SDS011;22475;51.390;7.180;2022-11-15T11:22:34;3.00;;;0.40;;
36449;SDS011;22475;51.390;7.180;2022-11-15T11:25:24;0.77;;;0.40;;
36449;SDS011;22475;51.390;7.180;2022-11-15T11:28:02;0.75;;;0.30;;
36449;SDS011;22475;51.390;7.180;2022-11-15T11:30:43;1.55;;;0.45;;
36449;SDS011;22475;51.390;7.180;2022-11-15T11:33:21;0.32;;;0.32;;
36449;SDS011;22475;51.390;7.180;2022-11-15T11:35:56;0.70;;;0.47;;
36449;SDS011;22475;51.390;7.180;2022-11-15T11:38:36;0.93;;;0.45;;
36449;SDS011;22475;51.390;7.180;2022-11-15T11:41:11;0.40;;;0.40;;
36449;SDS011;22475;51.390;7.180;2022-11-15T11:43:48;0.30;;;0.30;;
36449;SDS011;22475;51.390;7.180;2022-11-15T11:46:37;0.40;;;0.40;;
36449;SDS011;22475;51.390;7.180;2022-11-15T11:49:16;2.25;;;0.75;;
36449;SDS011;22475;51.390;7.180;2022-11-15T11:51:49;0.88;;;0.45;;
36449;SDS011;22475;51.390;7.180;2022-11-15T11:54:20;1.27;;;0.30;;
36449;SDS011;22475;51.390;7.180;2022-11-15T11:56:50;0.60;;;0.45;;
36449;SDS011;22475;51.390;7.180;2022-11-15T11:59:21;5.03;;;0.68;;
36449;SDS011;22475;51.390;7.180;2022-11-15T12:01:54;1.17;;;0.40;;
36449;SDS011;22475;51.390;7.180;2022-11-15T12:04:24;4.07;;;0.70;;
36449;SDS011;22475;51.390;7.180;2022-11-15T12:06:56;6.68;;;1.17;;
36449;SDS011;22475;51.390;7.180;2022-11-15T12:09:27;0.32;;;0.30;;
36449;SDS011;22475;51.390;7.180;2022-11-15T12:12:00;0.68;;;0.43;;
36449;SDS011;22475;51.390;7.180;2022-11-15T12:14:37;0.70;;;0.25;;
36449;SDS011;22475;51.390;7.180;2022-11-15T12:17:08;0.20;;;0.20;;
36449;SDS011;22475;51.390;7.180;2022-11-15T12:19:38;3.13;;;0.22;;
36449;SDS011;22475;51.390;7.180;2022-11-15T12:22:06;0.93;;;0.47;;
36449;SDS011;22475;51.390;7.180;2022-11-15T12:24:40;1.20;;;0.22;;
36449;SDS011;22475;51.390;7.180;2022-11-15T12:27:14;1.17;;;0.28;;
36449;SDS011;22475;51.390;7.180;2022-11-15T12:29:45;0.38;;;0.35;;
36449;SDS011;22475;51.390;7.180;2022-11-15T12:32:16;0.75;;;0.30;;
36449;SDS011;22475;51.390;7.180;2022-11-15T12:34:52;0.30;;;0.30;;
36449;SDS011;22475;51.390;7.180;2022-11-15T12:37:32;0.45;;;0.20;;
36449;SDS011;22475;51.390;7.180;2022-11-15T12:40:22;1.20;;;0.20;;
36449;SDS011;22475;51.390;7.180;2022-11-15T12:42:58;1.52;;;0.45;;
36449;SDS011;22475;51.390;7.180;2022-11-15T12:45:27;1.88;;;0.40;;
36449;SDS011;22475;51.390;7.180;2022-11-15T12:47:57;0.80;;;0.50;;
36449;SDS011;22475;51.390;7.180;2022-11-15T12:51:09;1.10;;;0.30;;
36449;SDS011;22475;51.390;7.180;2022-11-15T12:53:36;0.50;;;0.28;;
36449;SDS011;22475;51.390;7.180;2022-11-15T12:56:15;1.60;;;0.40;;
36449;SDS011;22475;51.390;7.180;2022-11-15T12:58:48;1.90;;;0.38;;
36449;SDS011;22475;51.390;7.180;2022-11-15T13:04:33;0.63;;;0.22;;
36449;SDS011;22475;51.390;7.180;2022-11-15T13:07:02;1.95;;;0.28;;
36449;SDS011;22475;51.390;7.180;2022-11-15T13:20:55;0.30;;;0.28;;
36449;SDS011;22475;51.390;7.180;2022-11-15T13:23:23;1.08;;;0.40;;
36449;SDS011;22475;51.390;7.180;2022-11-15T13:25:56;1.08;;;0.40;;
36449;SDS011;22475;51.390;7.180;2022-11-15T13:28:36;0.98;;;0.28;;
36449;SDS011;22475;51.390;7.180;2022-11-15T13:31:16;2.58;;;0.25;;
36449;SDS011;22475;51.390;7.180;2022-11-15T13:33:48;1.85;;;0.40;;
36449;SDS011;22475;51.390;7.180;2022-11-15T13:36:18;3.05;;;0.47;;
36449;SDS011;22475;51.390;7.180;2022-11-15T13:38:55;0.47;;;0.30;;
36449;SDS011;22475;51.390;7.180;2022-11-15T13:41:24;1.13;;;0.57;;
36449;SDS011;22475;51.390;7.180;2022-11-15T13:43:53;1.45;;;0.50;;
36449;SDS011;22475;51.390;7.180;2022-11-15T13:46:21;0.45;;;0.20;;
36449;SDS011;22475;51.390;7.180;2022-11-15T13:48:51;2.42;;;0.30;;
36449;SDS011;22475;51.390;7.180;2022-11-15T13:51:20;0.60;;;0.28;;
36449;SDS011;22475;51.390;7.180;2022-11-15T13:54:03;0.75;;;0.20;;
36449;SDS011;22475;51.390;7.180;2022-11-15T13:56:38;0.63;;;0.47;;
36449;SDS011;22475;51.390;7.180;2022-11-15T13:59:08;1.42;;;0.28;;
36449;SDS011;22475;51.390;7.180;2022-11-15T14:01:36;0.40;;;0.25;;
36449;SDS011;22475;51.390;7.180;2022-11-15T14:04:03;1.25;;;0.60;;
36449;SDS011;22475;51.390;7.180;2022-11-15T14:06:30;9.23;;;0.70;;
36449;SDS011;22475;51.390;7.180;2022-11-15T14:08:59;1.55;;;0.45;;
36449;SDS011;22475;51.390;7.180;2022-11-15T14:11:50;3.38;;;0.50;;
36449;SDS011;22475;51.390;7.180;2022-11-15T14:14:19;3.22;;;0.70;;
36449;SDS011;22475;51.390;7.180;2022-11-15T14:16:48;1.42;;;0.38;;
36449;SDS011;22475;51.390;7.180;2022-11-15T14:19:33;1.20;;;0.43;;
36449;SDS011;22475;51.390;7.180;2022-11-15T14:22:09;0.60;;;0.50;;
36449;SDS011;22475;51.390;7.180;2022-11-15T14:24:41;1.02;;;0.52;;
36449;SDS011;22475;51.390;7.180;2022-11-15T14:27:21;1.42;;;0.57;;
36449;SDS011;22475;51.390;7.180;2022-11-15T14:29:50;1.70;;;0.50;;
36449;SDS011;22475;51.390;7.180;2022-11-15T14:32:18;5.15;;;0.85;;
36449;SDS011;22475;51.390;7.180;2022-11-15T14:34:47;1.00;;;0.38;;
36449;SDS011;22475;51.390;7.180;2022-11-15T14:37:18;0.47;;;0.40;;
36449;SDS011;22475;51.390;7.180;2022-11-15T14:39:47;0.43;;;0.43;;
36449;SDS011;22475;51.390;7.180;2022-11-15T14:42:14;1.55;;;1.25;;
36449;SDS011;22475;51.390;7.180;2022-11-15T14:44:42;3.42;;;0.70;;
36449;SDS011;22475;51.390;7.180;2022-11-15T14:47:09;1.60;;;0.50;;
36449;SDS011;22475;51.390;7.180;2022-11-15T14:49:35;3.47;;;0.60;;
36449;SDS011;22475;51.390;7.180;2022-11-15T14:52:02;0.55;;;0.32;;
36449;SDS011;22475;51.390;7.180;2022-11-15T14:54:42;1.50;;;0.80;;
36449;SDS011;22475;51.390;7.180;2022-11-15T14:57:09;0.85;;;0.85;;
36449;SDS011;22475;51.390;7.180;2022-11-15T14:59:35;2.45;;;0.63;;
36449;SDS011;22475;51.390;7.180;2022-11-15T15:02:07;1.52;;;0.60;;
36449;SDS011;22475;51.390;7.180;2022-11-15T15:04:38;2.92;;;0.77;;
36449;SDS011;22475;51.390;7.180;2022-11-15T15:07:05;1.65;;;0.65;;
36449;SDS011;22475;51.390;7.180;2022-11-15T15:09:32;0.40;;;0.40;;
36449;SDS011;22475;51.390;7.180;2022-11-15T15:11:59;3.95;;;0.75;;
36449;SDS011;22475;51.390;7.180;2022-11-15T15:14:26;1.70;;;0.82;;
36449;SDS011;22475;51.390;7.180;2022-11-15T15:16:52;0.82;;;0.82;;
36449;SDS011;22475;51.390;7.180;2022-11-15T15:19:20;0.43;;;0.40;;
36449;SDS011;22475;51.390;7.180;2022-11-15T15:21:47;3.30;;;0.88;;
36449;SDS011;22475;51.390;7.180;2022-11-15T15:24:14;0.47;;;0.47;;